Time;durP1;ratioP1;P1;durP2;ratioP2;P2;SDS_P1;SDS_P2;PMS_P1;PMS_P2;Temp;Humidity;BMP_temperature;BMP_pressure;BME280_temperature;BME280_humidity;BME280_pressure;Samples;Min_cycle;Max_cycle;Signal;HPM_P1;HPM_P2
2022/03/21 00:02:20;;;;;;;54.65;19.52;;;;;;;;;;5034747;28;20115;-80
2022/03/21 00:04:45;;;;;;;48.10;18.83;;;;;;;;;;5017123;28;20439;-79
2022/03/21 00:07:11;;;;;;;58.30;20.67;;;;;;;;;;5033232;28;20037;-78
2022/03/21 00:09:36;;;;;;;58.85;19.23;;;;;;;;;;5016957;28;20038;-78
2022/03/21 00:12:04;;;;;;;51.38;18.55;;;;;;;;;;5033465;28;20029;-79
2022/03/21 00:14:29;;;;;;;53.05;19.60;;;;;;;;;;5033413;28;20029;-78
2022/03/21 00:16:55;;;;;;;47.30;17.75;;;;;;;;;;5033352;28;20056;-79
2022/03/21 00:19:20;;;;;;;40.38;16.42;;;;;;;;;;5033384;28;20036;-79
2022/03/21 00:21:46;;;;;;;40.22;17.02;;;;;;;;;;5017670;28;20481;-80
2022/03/21 00:24:11;;;;;;;47.53;19.17;;;;;;;;;;5033818;28;20049;-79
2022/03/21 00:26:37;;;;;;;45.97;17.42;;;;;;;;;;5033194;28;20451;-79
2022/03/21 00:29:02;;;;;;;48.33;16.95;;;;;;;;;;5017258;28;20410;-80
2022/03/21 00:31:28;;;;;;;46.55;16.58;;;;;;;;;;5034627;28;20036;-79
2022/03/21 00:33:54;;;;;;;51.40;18.02;;;;;;;;;;5016520;28;20025;-79
2022/03/21 00:36:19;;;;;;;54.17;18.02;;;;;;;;;;5033028;28;20029;-79
2022/03/21 00:38:45;;;;;;;47.70;17.50;;;;;;;;;;5017083;28;20021;-79
2022/03/21 00:41:10;;;;;;;56.10;19.45;;;;;;;;;;5035570;28;20021;-78
2022/03/21 00:43:36;;;;;;;53.80;18.23;;;;;;;;;;5017727;28;20469;-80
2022/03/21 00:46:02;;;;;;;49.97;18.10;;;;;;;;;;5017064;28;20367;-80
2022/03/21 00:48:30;;;;;;;49.67;17.58;;;;;;;;;;5033301;28;20533;-80
2022/03/21 00:50:56;;;;;;;46.03;17.45;;;;;;;;;;5016834;28;20447;-79
2022/03/21 00:53:21;;;;;;;41.08;16.13;;;;;;;;;;5000122;28;20037;-78
2022/03/21 00:55:48;;;;;;;48.63;16.88;;;;;;;;;;5033130;28;20348;-80
2022/03/21 00:58:13;;;;;;;52.33;18.95;;;;;;;;;;5025769;28;20029;-79
2022/03/21 01:00:39;;;;;;;40.83;17.45;;;;;;;;;;5000469;28;20091;-79
2022/03/21 01:03:04;;;;;;;41.65;16.50;;;;;;;;;;5041432;28;20038;-81
2022/03/21 01:05:30;;;;;;;49.30;16.92;;;;;;;;;;5047495;28;20065;-79
2022/03/21 01:07:56;;;;;;;43.95;16.27;;;;;;;;;;5062402;28;20034;-79
2022/03/21 01:10:22;;;;;;;51.65;18.75;;;;;;;;;;5029982;28;20029;-79
2022/03/21 01:12:48;;;;;;;48.25;16.63;;;;;;;;;;5046494;28;20030;-79
2022/03/21 01:15:15;;;;;;;45.65;18.50;;;;;;;;;;5029859;28;20083;-79
2022/03/21 01:17:44;;;;;;;48.10;19.00;;;;;;;;;;5043852;28;20144;-79
2022/03/21 01:20:10;;;;;;;44.38;16.60;;;;;;;;;;5018338;28;20032;-80
2022/03/21 01:22:36;;;;;;;42.28;17.75;;;;;;;;;;5017669;28;20482;-79
2022/03/21 01:25:02;;;;;;;53.45;19.52;;;;;;;;;;5035861;28;20026;-80
2022/03/21 01:27:29;;;;;;;45.60;18.25;;;;;;;;;;5036661;28;20030;-79
2022/03/21 01:29:55;;;;;;;48.10;19.02;;;;;;;;;;5019496;28;20025;-80
2022/03/21 01:32:20;;;;;;;45.65;17.00;;;;;;;;;;5034694;28;20029;-80
2022/03/21 01:34:46;;;;;;;43.55;16.48;;;;;;;;;;5016612;28;20060;-80
2022/03/21 01:37:11;;;;;;;44.67;16.67;;;;;;;;;;5034007;28;20104;-79
2022/03/21 01:39:37;;;;;;;42.25;16.25;;;;;;;;;;5018886;28;20112;-80
2022/03/21 01:42:03;;;;;;;41.72;15.63;;;;;;;;;;5034658;28;20036;-80
2022/03/21 01:44:30;;;;;;;45.58;16.98;;;;;;;;;;5041894;28;20016;-79
2022/03/21 01:46:55;;;;;;;42.58;17.15;;;;;;;;;;5007327;28;20029;-80
2022/03/21 01:49:21;;;;;;;43.65;17.42;;;;;;;;;;5041005;28;20060;-80
2022/03/21 01:51:47;;;;;;;42.63;16.55;;;;;;;;;;5038179;28;20029;-80
2022/03/21 01:56:56;;;;;;;43.55;16.67;;;;;;;;;;5040903;28;20366;-80
2022/03/21 01:59:21;;;;;;;40.60;16.42;;;;;;;;;;5038837;28;20041;-80
2022/03/21 02:01:47;;;;;;;46.95;15.82;;;;;;;;;;5036208;28;20088;-79
2022/03/21 02:04:13;;;;;;;37.45;14.88;;;;;;;;;;5035897;28;20455;-80
2022/03/21 02:06:39;;;;;;;33.88;14.65;;;;;;;;;;5023253;28;20394;-79
2022/03/21 02:09:06;;;;;;;45.97;14.90;;;;;;;;;;5024263;28;20036;-80
2022/03/21 02:11:33;;;;;;;40.30;15.68;;;;;;;;;;5007363;28;20064;-80
2022/03/21 02:14:00;;;;;;;40.22;16.92;;;;;;;;;;5006880;28;20026;-79
2022/03/21 02:16:26;;;;;;;48.47;16.98;;;;;;;;;;5022403;28;20077;-79
2022/03/21 02:18:52;;;;;;;45.83;18.52;;;;;;;;;;5022278;28;20120;-80
2022/03/21 02:21:27;;;;;;;46.92;17.80;;;;;;;;;;5019523;28;20523;-80
2022/03/21 02:23:58;;;;;;;48.53;20.00;;;;;;;;;;5019792;28;20036;-80
2022/03/21 02:26:24;;;;;;;50.40;19.67;;;;;;;;;;5041930;28;20010;-80
2022/03/21 02:28:49;;;;;;;44.60;19.65;;;;;;;;;;5023272;28;20056;-80
2022/03/21 02:31:16;;;;;;;46.35;17.90;;;;;;;;;;5023995;28;20048;-80
2022/03/21 02:33:41;;;;;;;43.42;18.98;;;;;;;;;;5023244;28;20076;-80
2022/03/21 02:36:07;;;;;;;51.78;20.23;;;;;;;;;;5022000;28;20041;-80
2022/03/21 02:38:32;;;;;;;55.88;21.67;;;;;;;;;;5039852;28;20443;-79
2022/03/21 02:40:58;;;;;;;60.85;23.63;;;;;;;;;;5036920;28;20059;-80
2022/03/21 02:43:23;;;;;;;66.40;24.75;;;;;;;;;;5019947;28;20344;-79
2022/03/21 02:45:49;;;;;;;68.40;25.13;;;;;;;;;;5035776;28;20042;-79
2022/03/21 02:48:15;;;;;;;63.72;24.08;;;;;;;;;;5036617;28;20414;-79
2022/03/21 02:51:13;;;;;;;61.72;23.50;;;;;;;;;;5025653;28;20029;-79
2022/03/21 02:53:39;;;;;;;56.38;21.52;;;;;;;;;;4995933;28;20037;-80
2022/03/21 02:56:05;;;;;;;51.67;20.23;;;;;;;;;;5038916;28;20036;-79
2022/03/21 02:58:30;;;;;;;49.97;19.38;;;;;;;;;;5020617;28;20036;-80
2022/03/21 03:01:12;;;;;;;56.35;22.02;;;;;;;;;;5038503;28;20029;-79
2022/03/21 03:03:38;;;;;;;54.50;21.02;;;;;;;;;;5004016;28;20066;-80
2022/03/21 03:06:03;;;;;;;62.97;22.48;;;;;;;;;;5036594;28;20022;-78
2022/03/21 03:08:32;;;;;;;64.35;23.80;;;;;;;;;;5040102;28;20082;-79
2022/03/21 03:10:57;;;;;;;61.30;23.35;;;;;;;;;;5022852;28;20048;-80
2022/03/21 03:13:23;;;;;;;63.88;25.30;;;;;;;;;;5040214;28;20025;-80
2022/03/21 03:15:48;;;;;;;80.30;28.23;;;;;;;;;;5039528;28;20021;-79
2022/03/21 03:18:14;;;;;;;72.30;26.08;;;;;;;;;;5077781;28;20060;-79
2022/03/21 03:20:56;;;;;;;61.83;22.85;;;;;;;;;;5045137;28;20025;-79
2022/03/21 03:23:24;;;;;;;53.58;19.42;;;;;;;;;;5060929;28;20025;-79
2022/03/21 03:26:03;;;;;;;53.35;19.48;;;;;;;;;;5042628;28;20038;-79
2022/03/21 03:28:29;;;;;;;45.08;17.40;;;;;;;;;;5060390;28;20507;-80
2022/03/21 03:30:55;;;;;;;45.85;17.92;;;;;;;;;;5061600;28;20078;-79
2022/03/21 03:33:20;;;;;;;48.33;17.98;;;;;;;;;;5046910;28;20024;-79
2022/03/21 03:35:47;;;;;;;49.72;18.88;;;;;;;;;;5062173;28;20438;-79
2022/03/21 03:38:12;;;;;;;54.92;19.50;;;;;;;;;;5062524;28;20023;-81
2022/03/21 03:40:38;;;;;;;58.92;21.25;;;;;;;;;;5044427;28;20024;-79
2022/03/21 03:43:03;;;;;;;62.10;21.90;;;;;;;;;;5044154;28;20031;-80
2022/03/21 03:45:29;;;;;;;53.13;22.58;;;;;;;;;;5044297;28;20036;-79
2022/03/21 03:47:55;;;;;;;53.47;22.02;;;;;;;;;;5077950;28;20051;-82
2022/03/21 03:50:20;;;;;;;58.22;22.08;;;;;;;;;;5060368;28;20350;-79
2022/03/21 03:52:47;;;;;;;59.53;22.73;;;;;;;;;;5064730;28;20066;-80
2022/03/21 03:55:13;;;;;;;54.17;21.58;;;;;;;;;;5061500;28;20024;-80
2022/03/21 03:57:39;;;;;;;62.20;21.67;;;;;;;;;;5043369;28;20158;-79
2022/03/21 04:00:07;;;;;;;57.05;21.75;;;;;;;;;;5060191;28;20052;-80
2022/03/21 04:03:44;;;;;;;58.95;22.15;;;;;;;;;;5059591;28;20115;-79
2022/03/21 04:05:18;;;;;;;53.78;21.80;;;;;;;;;;5062685;28;20032;-79
2022/03/21 04:07:44;;;;;;;64.97;23.50;;;;;;;;;;5076838;28;20446;-81
2022/03/21 04:10:09;;;;;;;65.65;24.17;;;;;;;;;;5057348;28;20027;-80
2022/03/21 04:12:35;;;;;;;86.10;29.95;;;;;;;;;;5043274;28;20084;-80
2022/03/21 04:15:00;;;;;;;94.38;29.48;;;;;;;;;;5062746;28;20024;-79
2022/03/21 04:17:26;;;;;;;94.47;33.50;;;;;;;;;;5028888;28;20049;-78
2022/03/21 04:19:51;;;;;;;80.45;29.25;;;;;;;;;;5078431;28;20024;-79
2022/03/21 04:22:17;;;;;;;87.15;34.00;;;;;;;;;;5059608;28;20028;-79
2022/03/21 04:24:42;;;;;;;84.25;30.38;;;;;;;;;;5042050;28;20530;-79
2022/03/21 04:27:08;;;;;;;80.60;31.08;;;;;;;;;;5077348;28;20378;-79
2022/03/21 04:29:33;;;;;;;100.53;39.05;;;;;;;;;;5057900;28;20029;-81
2022/03/21 04:31:59;;;;;;;111.80;41.88;;;;;;;;;;5075342;28;20033;-78
2022/03/21 04:34:24;;;;;;;79.43;29.42;;;;;;;;;;5061679;28;20032;-81
2022/03/21 04:36:50;;;;;;;67.43;25.92;;;;;;;;;;5078569;28;20097;-79
2022/03/21 04:39:15;;;;;;;67.68;24.50;;;;;;;;;;5057905;28;20365;-79
2022/03/21 04:41:41;;;;;;;79.32;29.83;;;;;;;;;;5076156;28;20029;-78
2022/03/21 04:44:06;;;;;;;87.70;32.22;;;;;;;;;;5058335;28;20029;-79
2022/03/21 04:46:31;;;;;;;76.72;30.23;;;;;;;;;;5057665;28;20040;-79
2022/03/21 04:48:57;;;;;;;68.78;26.33;;;;;;;;;;5075040;28;20029;-80
2022/03/21 04:51:22;;;;;;;57.63;25.65;;;;;;;;;;5056386;28;20465;-79
2022/03/21 04:53:48;;;;;;;58.55;24.85;;;;;;;;;;5060995;28;20037;-79
2022/03/21 04:56:13;;;;;;;63.53;26.80;;;;;;;;;;5040243;28;20037;-79
2022/03/21 04:58:39;;;;;;;67.60;26.50;;;;;;;;;;5076155;28;20028;-79
2022/03/21 05:01:04;;;;;;;60.80;25.65;;;;;;;;;;5074288;28;20461;-79
2022/03/21 05:03:32;;;;;;;60.88;26.40;;;;;;;;;;5056172;28;20027;-77
2022/03/21 05:05:58;;;;;;;71.05;28.15;;;;;;;;;;5073842;28;20070;-78
2022/03/21 05:08:24;;;;;;;77.72;30.98;;;;;;;;;;5073515;28;20027;-77
2022/03/21 05:10:49;;;;;;;104.22;35.08;;;;;;;;;;5039246;28;20025;-76
2022/03/21 05:13:15;;;;;;;105.50;38.85;;;;;;;;;;5055958;28;20044;-76
2022/03/21 05:15:41;;;;;;;132.50;46.33;;;;;;;;;;5045852;28;20501;-79
2022/03/21 05:18:06;;;;;;;126.95;44.72;;;;;;;;;;5055614;28;20089;-77
2022/03/21 05:20:32;;;;;;;129.80;46.22;;;;;;;;;;5041595;28;20442;-77
2022/03/21 05:31:10;;;;;;;88.20;32.85;;;;;;;;;;5077065;28;20067;-77
2022/03/21 05:36:28;;;;;;;81.05;29.80;;;;;;;;;;5061371;28;20481;-78
2022/03/21 05:38:54;;;;;;;73.55;30.65;;;;;;;;;;5019669;28;20025;-77
2022/03/21 05:41:20;;;;;;;79.80;30.55;;;;;;;;;;5037485;28;20099;-78
2022/03/21 05:43:45;;;;;;;83.65;32.63;;;;;;;;;;5037402;28;20450;-79
2022/03/21 05:46:11;;;;;;;80.18;32.75;;;;;;;;;;5047894;28;20086;-78
2022/03/21 05:48:53;;;;;;;76.85;32.40;;;;;;;;;;5058415;28;20056;-78
2022/03/21 05:51:23;;;;;;;77.65;31.60;;;;;;;;;;5062612;28;20035;-77
2022/03/21 05:53:50;;;;;;;95.88;37.83;;;;;;;;;;5040975;28;20044;-79
2022/03/21 05:56:15;;;;;;;95.22;38.92;;;;;;;;;;5040838;28;20051;-79
2022/03/21 05:58:41;;;;;;;96.05;39.38;;;;;;;;;;5054872;28;20029;-80
2022/03/21 06:01:07;;;;;;;82.90;35.75;;;;;;;;;;5021247;28;20036;-77
2022/03/21 06:03:33;;;;;;;87.00;35.42;;;;;;;;;;5055958;28;20094;-79
2022/03/21 06:05:59;;;;;;;93.82;34.38;;;;;;;;;;5019561;28;20028;-79
2022/03/21 06:08:36;;;;;;;105.03;40.05;;;;;;;;;;5017119;28;20041;-80
2022/03/21 06:11:08;;;;;;;95.38;35.95;;;;;;;;;;5023886;28;20022;-80
2022/03/21 06:13:42;;;;;;;98.40;38.60;;;;;;;;;;5046817;28;20020;-80
2022/03/21 06:16:10;;;;;;;122.13;45.38;;;;;;;;;;5018025;28;20166;-78
2022/03/21 06:18:36;;;;;;;175.20;64.32;;;;;;;;;;5039158;28;20040;-79
2022/03/21 06:21:03;;;;;;;108.43;41.17;;;;;;;;;;5022769;28;20439;-78
2022/03/21 06:23:29;;;;;;;83.30;29.98;;;;;;;;;;5018985;28;20044;-77
2022/03/21 06:25:56;;;;;;;85.38;32.38;;;;;;;;;;5035146;28;20083;-79
2022/03/21 06:28:22;;;;;;;75.90;32.55;;;;;;;;;;5037019;28;20125;-81
2022/03/21 06:30:51;;;;;;;70.35;30.30;;;;;;;;;;5041471;28;20021;-81
2022/03/21 06:33:21;;;;;;;76.32;30.02;;;;;;;;;;5027773;28;20041;-81
2022/03/21 06:35:48;;;;;;;80.60;34.08;;;;;;;;;;5007778;28;20068;-80
2022/03/21 06:38:14;;;;;;;69.25;30.15;;;;;;;;;;5005779;28;20037;-80
2022/03/21 06:40:39;;;;;;;83.45;35.08;;;;;;;;;;5020995;28;22096;-77
2022/03/21 06:43:08;;;;;;;83.88;36.63;;;;;;;;;;5021369;28;20148;-77
2022/03/21 06:45:33;;;;;;;88.38;37.47;;;;;;;;;;5021937;28;20033;-77
2022/03/21 06:50:53;;;;;;;131.48;49.92;;;;;;;;;;5072875;23;20060;-78
2022/03/21 06:53:23;;;;;;;141.27;58.30;;;;;;;;;;5073383;28;20024;-79
2022/03/21 06:55:48;;;;;;;150.48;60.50;;;;;;;;;;5070897;28;20036;-81
2022/03/21 06:58:14;;;;;;;145.80;58.08;;;;;;;;;;5063720;28;20035;-81
2022/03/21 07:00:41;;;;;;;145.15;58.30;;;;;;;;;;5069034;28;20035;-85
2022/03/21 07:03:17;;;;;;;148.02;62.22;;;;;;;;;;5067913;28;20060;-81
2022/03/21 07:05:48;;;;;;;150.73;64.10;;;;;;;;;;5078063;28;20036;-83
2022/03/21 07:08:17;;;;;;;141.32;57.20;;;;;;;;;;5063355;28;20033;-83
2022/03/21 07:10:49;;;;;;;123.90;57.45;;;;;;;;;;5069738;28;20021;-82
2022/03/21 07:13:18;;;;;;;113.13;52.55;;;;;;;;;;5076523;28;20020;-85
2022/03/21 07:15:46;;;;;;;130.55;51.22;;;;;;;;;;5068016;28;20036;-80
2022/03/21 07:18:12;;;;;;;106.30;48.72;;;;;;;;;;5062749;28;20067;-78
2022/03/21 07:20:37;;;;;;;96.93;45.53;;;;;;;;;;5063917;28;20483;-84
2022/03/21 07:23:03;;;;;;;99.20;44.00;;;;;;;;;;5062287;28;20021;-77
2022/03/21 07:25:29;;;;;;;84.40;41.20;;;;;;;;;;5069556;28;20064;-78
2022/03/21 07:27:55;;;;;;;85.28;41.05;;;;;;;;;;5071624;28;20331;-80
2022/03/21 07:30:20;;;;;;;95.68;44.13;;;;;;;;;;5066728;28;20035;-79
2022/03/21 07:32:49;;;;;;;97.75;43.55;;;;;;;;;;5074945;28;20025;-79
2022/03/21 07:35:15;;;;;;;121.45;57.67;;;;;;;;;;5073494;28;20455;-80
2022/03/21 07:37:49;;;;;;;75.82;35.30;;;;;;;;;;5064676;28;20101;-82
2022/03/21 07:40:15;;;;;;;72.43;33.88;;;;;;;;;;5067572;28;20127;-82
2022/03/21 07:42:41;;;;;;;67.22;33.58;;;;;;;;;;5065821;28;20087;-79
2022/03/21 07:47:53;;;;;;;84.38;41.75;;;;;;;;;;5073737;28;20373;-80
2022/03/21 07:50:19;;;;;;;82.00;44.45;;;;;;;;;;5067217;28;20051;-80
2022/03/21 07:52:51;;;;;;;80.35;41.65;;;;;;;;;;5069839;28;20477;-81
2022/03/21 08:04:47;;;;;;;80.03;40.60;;;;;;;;;;5108247;22;20045;-78
2022/03/21 08:07:18;;;;;;;;;;;;;;;;;;5042557;28;20056;-82
2022/03/21 08:09:46;;;;;;;78.38;38.25;;;;;;;;;;5034453;28;19924;-82
2022/03/21 08:12:12;;;;;;;78.05;40.80;;;;;;;;;;5038747;28;20471;-80
2022/03/21 08:14:37;;;;;;;77.78;39.95;;;;;;;;;;5042248;28;20048;-80
2022/03/21 08:19:43;;;;;;;77.55;39.88;;;;;;;;;;5096245;22;20550;-82
2022/03/21 08:22:12;;;;;;;70.90;38.22;;;;;;;;;;5068274;28;20028;-84
2022/03/21 08:24:38;;;;;;;71.22;36.05;;;;;;;;;;5082751;28;20031;-81
2022/03/21 08:30:37;;;;;;;;;;;;;;;;;;;;;
2022/03/21 08:33:04;;;;;;;68.93;33.92;;;;;;;;;;5067915;28;20029;-79
2022/03/21 08:35:39;;;;;;;72.18;35.22;;;;;;;;;;5081463;28;20033;-79
2022/03/21 08:38:07;;;;;;;69.72;35.38;;;;;;;;;;5062935;28;20058;-80
2022/03/21 08:40:33;;;;;;;65.07;34.47;;;;;;;;;;5079270;28;20060;-80
2022/03/21 08:42:58;;;;;;;66.53;34.22;;;;;;;;;;5066193;28;20037;-79
2022/03/21 08:45:24;;;;;;;66.28;34.40;;;;;;;;;;5076659;28;20548;-81
2022/03/21 08:47:53;;;;;;;65.07;33.25;;;;;;;;;;5083281;28;20028;-81
2022/03/21 08:50:19;;;;;;;65.55;35.42;;;;;;;;;;5061911;28;20146;-82
2022/03/21 08:52:46;;;;;;;67.88;32.55;;;;;;;;;;5083920;28;20033;-80
2022/03/21 08:55:15;;;;;;;61.67;31.25;;;;;;;;;;5083450;28;20036;-82
2022/03/21 08:57:43;;;;;;;79.75;35.40;;;;;;;;;;5085263;28;20029;-79
2022/03/21 09:00:10;;;;;;;65.57;32.55;;;;;;;;;;5083946;28;20481;-82
2022/03/21 09:02:40;;;;;;;61.35;32.15;;;;;;;;;;5074021;28;20025;-78
2022/03/21 09:07:40;;;;;;;61.10;30.58;;;;;;;;;;5119578;22;20056;-81
2022/03/21 09:10:21;;;;;;;;;;;;;;;;;;;;;
2022/03/21 09:13:08;;;;;;;;;;;;;;;;;;;;;
2022/03/21 09:15:34;;;;;;;53.50;27.50;;;;;;;;;;5038284;28;20112;-81
2022/03/21 09:18:01;;;;;;;52.28;27.55;;;;;;;;;;5049716;28;20036;-78
2022/03/21 09:20:28;;;;;;;59.65;29.77;;;;;;;;;;5018542;28;20044;-80
2022/03/21 09:22:57;;;;;;;61.15;29.40;;;;;;;;;;5040370;28;20101;-80
2022/03/21 09:25:26;;;;;;;68.93;30.40;;;;;;;;;;5046028;28;20029;-81
2022/03/21 09:28:04;;;;;;;75.65;31.20;;;;;;;;;;5052799;28;20047;-83
2022/03/21 09:30:30;;;;;;;62.38;30.40;;;;;;;;;;5050575;28;20680;-80
2022/03/21 09:32:56;;;;;;;83.32;34.17;;;;;;;;;;5050615;28;20140;-81
2022/03/21 09:35:21;;;;;;;60.08;28.83;;;;;;;;;;5060219;28;20059;-81
2022/03/21 09:37:47;;;;;;;72.20;31.48;;;;;;;;;;5016619;28;20040;-80
2022/03/21 09:40:13;;;;;;;65.63;30.73;;;;;;;;;;5049117;28;20059;-81
2022/03/21 09:42:42;;;;;;;67.13;29.50;;;;;;;;;;5029539;28;20116;-80
2022/03/21 09:45:10;;;;;;;134.18;44.33;;;;;;;;;;5047726;28;20029;-80
2022/03/21 09:50:26;;;;;;;136.52;42.42;;;;;;;;;;5041923;28;20076;-83
2022/03/21 09:52:52;;;;;;;67.15;28.42;;;;;;;;;;5022218;28;20442;-81
2022/03/21 09:55:20;;;;;;;58.83;27.42;;;;;;;;;;5035220;28;20026;-81
2022/03/21 09:57:46;;;;;;;83.25;32.78;;;;;;;;;;5038105;28;20037;-80
2022/03/21 10:00:12;;;;;;;63.08;29.02;;;;;;;;;;5056541;28;20031;-79
2022/03/21 10:02:37;;;;;;;55.33;26.55;;;;;;;;;;5029426;28;20061;-80
2022/03/21 10:05:03;;;;;;;61.63;28.25;;;;;;;;;;5018907;28;20040;-80
2022/03/21 10:07:31;;;;;;;60.28;28.95;;;;;;;;;;5015780;28;20107;-79
2022/03/21 10:10:16;;;;;;;59.25;27.85;;;;;;;;;;5082086;28;20524;-80
2022/03/21 10:12:46;;;;;;;66.50;29.58;;;;;;;;;;5067226;28;20139;-82
2022/03/21 10:15:17;;;;;;;54.70;26.50;;;;;;;;;;5051988;28;20031;-83
2022/03/21 10:18:12;;;;;;;57.40;27.05;;;;;;;;;;5044409;28;20040;-82
2022/03/21 10:20:39;;;;;;;74.75;29.60;;;;;;;;;;5052352;28;20055;-81
2022/03/21 10:23:33;;;;;;;66.53;28.20;;;;;;;;;;5048883;28;20082;-81
2022/03/21 10:25:59;;;;;;;60.55;26.30;;;;;;;;;;5059851;28;20052;-81
2022/03/21 10:28:32;;;;;;;58.20;26.33;;;;;;;;;;5065419;28;20031;-80
2022/03/21 10:34:22;;;;;;;53.00;22.85;;;;;;;;;;5068128;28;20527;-79
2022/03/21 10:37:04;;;;;;;52.33;22.23;;;;;;;;;;5061946;28;20086;-82
2022/03/21 10:39:35;;;;;;;51.38;23.35;;;;;;;;;;5051430;28;20025;-81
2022/03/21 10:42:10;;;;;;;52.03;24.20;;;;;;;;;;5061822;28;20025;-81
2022/03/21 10:47:31;;;;;;;58.17;24.55;;;;;;;;;;5051228;28;20228;-78
2022/03/21 10:50:01;;;;;;;61.00;24.52;;;;;;;;;;5031106;28;20032;-79
2022/03/21 10:52:28;;;;;;;57.65;27.58;;;;;;;;;;5034266;28;20056;-80
2022/03/21 10:54:57;;;;;;;51.78;24.63;;;;;;;;;;5043217;28;20033;-78
2022/03/21 10:57:26;;;;;;;68.35;27.08;;;;;;;;;;5040716;28;20052;-79
2022/03/21 11:03:20;;;;;;;68.88;29.83;;;;;;;;;;5021607;28;20043;-80
2022/03/21 11:05:46;;;;;;;53.63;23.92;;;;;;;;;;5043930;28;20036;-81
2022/03/21 11:08:15;;;;;;;53.83;25.17;;;;;;;;;;5044508;28;20128;-78
2022/03/21 11:10:47;;;;;;;53.40;24.42;;;;;;;;;;5058222;28;20034;-81
2022/03/21 11:13:20;;;;;;;51.47;23.65;;;;;;;;;;5060799;28;20029;-81
2022/03/21 11:15:54;;;;;;;54.53;23.27;;;;;;;;;;5092389;28;20044;-81
2022/03/21 11:18:20;;;;;;;59.55;25.73;;;;;;;;;;5038762;28;20036;-79
2022/03/21 11:20:46;;;;;;;59.78;25.80;;;;;;;;;;5072939;28;20032;-78
2022/03/21 11:23:11;;;;;;;50.47;23.15;;;;;;;;;;5057239;28;20035;-82
2022/03/21 11:25:39;;;;;;;57.28;25.08;;;;;;;;;;5033812;28;20358;-81
2022/03/21 11:28:08;;;;;;;55.63;23.58;;;;;;;;;;5047171;28;20025;-80
2022/03/21 11:30:34;;;;;;;61.58;24.58;;;;;;;;;;5064840;28;20037;-81
2022/03/21 11:33:33;;;;;;;56.28;21.77;;;;;;;;;;5053514;28;20036;-79
2022/03/21 11:36:04;;;;;;;52.38;23.88;;;;;;;;;;5008269;28;20049;-80
2022/03/21 11:38:33;;;;;;;54.95;24.80;;;;;;;;;;5052347;28;20029;-79
2022/03/21 11:41:21;;;;;;;49.72;22.13;;;;;;;;;;5034715;28;20029;-79
2022/03/21 11:44:08;;;;;;;49.88;21.55;;;;;;;;;;5053778;28;20190;-78
2022/03/21 11:46:34;;;;;;;55.53;24.92;;;;;;;;;;5054839;28;20033;-79
2022/03/21 11:49:05;;;;;;;52.53;24.02;;;;;;;;;;5047651;28;20029;-80
2022/03/21 11:51:40;;;;;;;56.70;25.70;;;;;;;;;;5055511;28;20043;-79
2022/03/21 11:54:23;;;;;;;55.88;25.67;;;;;;;;;;5039815;28;20037;-80
2022/03/21 11:56:53;;;;;;;50.47;22.20;;;;;;;;;;5071198;28;20039;-80
2022/03/21 11:59:39;;;;;;;53.42;22.98;;;;;;;;;;5052606;28;20486;-80
2022/03/21 12:02:07;;;;;;;51.78;24.73;;;;;;;;;;5049341;28;20046;-79
2022/03/21 12:04:33;;;;;;;44.25;20.80;;;;;;;;;;5052728;28;20374;-80
2022/03/21 12:06:59;;;;;;;58.70;24.25;;;;;;;;;;5033768;28;20470;-85
2022/03/21 12:09:38;;;;;;;54.22;23.10;;;;;;;;;;5022017;28;20049;-85
2022/03/21 12:12:13;;;;;;;55.22;24.05;;;;;;;;;;5050516;28;20028;-81
2022/03/21 12:14:45;;;;;;;64.72;23.95;;;;;;;;;;5027341;28;20088;-83
2022/03/21 12:17:11;;;;;;;56.65;24.02;;;;;;;;;;5029578;28;20036;-80
2022/03/21 12:19:48;;;;;;;58.13;23.70;;;;;;;;;;5049435;28;20127;-79
2022/03/21 12:22:39;;;;;;;58.65;23.60;;;;;;;;;;5034559;28;20041;-77
2022/03/21 12:25:13;;;;;;;63.22;26.40;;;;;;;;;;5044225;28;20041;-79
2022/03/21 12:27:45;;;;;;;56.83;23.35;;;;;;;;;;5026291;28;20036;-79
2022/03/21 12:30:19;;;;;;;67.35;26.15;;;;;;;;;;5030010;28;20088;-78
2022/03/21 12:32:52;;;;;;;64.40;24.75;;;;;;;;;;5032610;28;20440;-78
2022/03/21 12:35:35;;;;;;;62.13;25.33;;;;;;;;;;5015643;28;20036;-78
2022/03/21 12:38:10;;;;;;;67.78;26.30;;;;;;;;;;5033296;28;20033;-77
2022/03/21 12:40:58;;;;;;;56.17;24.13;;;;;;;;;;5049268;28;20029;-77
2022/03/21 12:43:29;;;;;;;55.75;24.02;;;;;;;;;;5053468;28;20032;-77
2022/03/21 12:46:07;;;;;;;59.05;24.60;;;;;;;;;;5036531;28;20044;-78
2022/03/21 12:48:34;;;;;;;94.72;41.22;;;;;;;;;;5057419;28;20029;-80
2022/03/21 12:50:59;;;;;;;68.90;29.38;;;;;;;;;;5053688;28;20033;-79
2022/03/21 12:53:34;;;;;;;70.47;29.33;;;;;;;;;;5019751;28;20934;-80
2022/03/21 12:56:00;;;;;;;71.97;31.55;;;;;;;;;;5038351;28;20028;-79
2022/03/21 12:58:26;;;;;;;52.83;23.02;;;;;;;;;;5020130;28;20029;-79
2022/03/21 13:00:51;;;;;;;58.30;24.95;;;;;;;;;;5053686;28;20481;-81
2022/03/21 13:03:17;;;;;;;58.15;25.50;;;;;;;;;;5035808;28;20107;-78
2022/03/21 13:11:25;;;;;;;48.13;20.30;;;;;;;;;;5055802;28;20071;-77
2022/03/21 13:14:01;;;;;;;52.53;24.33;;;;;;;;;;5052935;28;20470;-78
2022/03/21 13:16:28;;;;;;;53.17;21.50;;;;;;;;;;5052500;28;20437;-77
2022/03/21 13:18:54;;;;;;;55.25;21.80;;;;;;;;;;5053591;28;20462;-78
2022/03/21 13:21:23;;;;;;;48.45;20.88;;;;;;;;;;5053640;28;20370;-79
2022/03/21 13:23:49;;;;;;;46.90;20.85;;;;;;;;;;5052926;28;20116;-80
2022/03/21 13:26:24;;;;;;;51.70;21.00;;;;;;;;;;5053307;28;20037;-80
2022/03/21 13:28:51;;;;;;;52.67;20.00;;;;;;;;;;5054056;28;20033;-78
2022/03/21 13:31:18;;;;;;;48.30;19.85;;;;;;;;;;5036103;28;20033;-77
2022/03/21 13:33:54;;;;;;;53.53;20.33;;;;;;;;;;5052431;28;20063;-78
2022/03/21 13:36:23;;;;;;;54.03;21.52;;;;;;;;;;5035981;28;20021;-77
2022/03/21 13:39:09;;;;;;;54.40;22.38;;;;;;;;;;5053461;28;20029;-77
2022/03/21 13:41:51;;;;;;;52.42;22.25;;;;;;;;;;5041348;28;20115;-79
2022/03/21 13:44:16;;;;;;;47.15;21.77;;;;;;;;;;5056745;28;20036;-77
2022/03/21 13:46:58;;;;;;;49.72;19.58;;;;;;;;;;5058483;28;20025;-78
2022/03/21 13:49:52;;;;;;;49.70;20.70;;;;;;;;;;5047026;28;20413;-78
2022/03/21 13:52:45;;;;;;;59.08;24.25;;;;;;;;;;5040713;28;20029;-78
2022/03/21 13:55:27;;;;;;;49.88;19.88;;;;;;;;;;5057035;28;20116;-80
2022/03/21 13:57:53;;;;;;;46.28;21.80;;;;;;;;;;5054752;28;20625;-78
2022/03/21 14:00:57;;;;;;;43.88;19.25;;;;;;;;;;5055208;28;20027;-79
2022/03/21 14:03:50;;;;;;;58.55;21.85;;;;;;;;;;5013606;28;20033;-78
2022/03/21 14:06:15;;;;;;;52.10;21.63;;;;;;;;;;5011504;28;20042;-79
2022/03/21 14:08:41;;;;;;;46.45;21.40;;;;;;;;;;5046687;28;20086;-78
2022/03/21 14:11:08;;;;;;;57.05;23.05;;;;;;;;;;5041648;28;20029;-78
2022/03/21 14:13:38;;;;;;;49.38;21.42;;;;;;;;;;5055274;28;20040;-78
2022/03/21 14:16:04;;;;;;;;;;;;;;;;;;5055355;28;20037;-78
2022/03/21 14:18:31;;;;;;;50.15;20.13;;;;;;;;;;5055053;28;19919;-78
2022/03/21 14:20:57;;;;;;;52.45;21.67;;;;;;;;;;5022350;28;20036;-78
2022/03/21 14:23:23;;;;;;;63.33;23.25;;;;;;;;;;5038371;28;20372;-78
2022/03/21 14:28:32;;;;;;;48.47;20.27;;;;;;;;;;5043120;28;20102;-78
2022/03/21 14:30:58;;;;;;;54.92;20.65;;;;;;;;;;5060287;28;20426;-77
2022/03/21 14:33:24;;;;;;;54.50;22.02;;;;;;;;;;5039563;28;20036;-77
2022/03/21 14:35:50;;;;;;;48.00;21.83;;;;;;;;;;5055193;28;20036;-78
2022/03/21 14:38:15;;;;;;;89.55;38.53;;;;;;;;;;5053867;28;20060;-80
2022/03/21 14:40:41;;;;;;;44.92;19.55;;;;;;;;;;5054914;28;20025;-77
2022/03/21 14:43:07;;;;;;;49.38;22.02;;;;;;;;;;5055064;28;20017;-78
2022/03/21 14:45:34;;;;;;;63.40;23.75;;;;;;;;;;5054915;28;20021;-78
2022/03/21 14:47:59;;;;;;;51.83;21.23;;;;;;;;;;5056249;28;20029;-76
2022/03/21 14:50:25;;;;;;;51.67;19.45;;;;;;;;;;5054443;28;20078;-77
2022/03/21 14:52:50;;;;;;;53.47;20.98;;;;;;;;;;5037452;28;20450;-77
2022/03/21 14:55:16;;;;;;;51.38;20.88;;;;;;;;;;5055037;28;20032;-77
2022/03/21 14:57:41;;;;;;;57.13;21.30;;;;;;;;;;5038202;28;20360;-77
2022/03/21 15:00:07;;;;;;;47.42;18.98;;;;;;;;;;5055657;28;20025;-77
2022/03/21 15:02:32;;;;;;;47.40;18.92;;;;;;;;;;5037632;28;20061;-77
2022/03/21 15:04:58;;;;;;;49.08;21.55;;;;;;;;;;5055398;28;20025;-77
2022/03/21 15:07:25;;;;;;;46.85;19.90;;;;;;;;;;5055597;28;20049;-76
2022/03/21 15:12:36;;;;;;;45.78;19.60;;;;;;;;;;5054486;28;20020;-76
2022/03/21 15:15:01;;;;;;;42.63;19.08;;;;;;;;;;5055587;28;20033;-76
2022/03/21 15:17:27;;;;;;;44.88;19.55;;;;;;;;;;5054910;28;20036;-77
2022/03/21 15:19:53;;;;;;;60.45;22.30;;;;;;;;;;5055387;28;20067;-77
2022/03/21 15:22:18;;;;;;;66.28;26.40;;;;;;;;;;5054226;28;20029;-77
2022/03/21 15:24:44;;;;;;;45.88;19.70;;;;;;;;;;5037445;28;20505;-76
2022/03/21 15:27:10;;;;;;;51.88;19.80;;;;;;;;;;5038311;28;20045;-76
2022/03/21 15:29:36;;;;;;;48.20;20.40;;;;;;;;;;5044661;28;20340;-77